createdAt,value
2023-03-23T15:59:25.154Z,99980.66
2023-03-23T16:01:51.543Z,99990.56
2023-03-23T16:04:18.042Z,99993.25
2023-03-23T16:06:44.408Z,99981.50
2023-03-23T16:09:10.752Z,99975.31
2023-03-23T16:11:37.106Z,99969.94
2023-03-23T16:14:03.626Z,99978.81
2023-03-23T16:16:30.142Z,99982.53
2023-03-23T16:18:57.253Z,100002.13
2023-03-23T16:21:23.653Z,100003.97
2023-03-23T16:23:50.087Z,100005.88
2023-03-23T16:26:16.724Z,100009.63
2023-03-23T16:28:43.371Z,100016.59
2023-03-23T16:31:09.760Z,100019.28
2023-03-23T16:33:36.191Z,100024.66
2023-03-23T16:36:03.074Z,100034.56
2023-03-23T16:38:29.565Z,100042.59
2023-03-23T16:40:55.941Z,100043.44
2023-03-23T16:43:22.245Z,100044.50
2023-03-23T16:45:49.773Z,100038.06
2023-03-23T16:48:16.487Z,100043.66
2023-03-23T16:50:43.644Z,100046.09
2023-03-23T16:53:10.029Z,100039.91
2023-03-23T16:55:36.392Z,100025.44
2023-03-23T17:00:32.030Z,100044.00
2023-03-23T17:02:58.891Z,100042.13
2023-03-23T17:05:25.400Z,100046.66
2023-03-23T17:07:51.973Z,100045.03
2023-03-23T17:10:18.314Z,100037.00
2023-03-23T17:12:44.654Z,100031.88
2023-03-23T17:15:10.954Z,100041.31
2023-03-23T17:17:37.743Z,100042.69
2023-03-23T17:20:04.201Z,100060.69
2023-03-23T17:22:31.048Z,100055.31
2023-03-23T17:24:57.460Z,100064.38
2023-03-23T17:27:23.757Z,100060.91
2023-03-23T17:29:50.047Z,100063.38
2023-03-23T17:32:16.664Z,100078.41
2023-03-23T17:34:43.046Z,100086.44
2023-03-23T17:37:09.525Z,100097.19
2023-03-23T17:39:42.329Z,100079.22
2023-03-23T17:42:10.133Z,100076.78
2023-03-23T17:44:36.687Z,100071.41
2023-03-23T17:47:03.432Z,100073.03
2023-03-23T17:49:29.944Z,100071.97
2023-03-23T17:51:56.315Z,100059.94
2023-03-23T17:54:22.878Z,100056.94
2023-03-23T17:56:49.317Z,100058.13
2023-03-23T17:59:15.718Z,100059.88
2023-03-23T18:01:42.971Z,100069.56
2023-03-23T18:04:09.270Z,100080.06
2023-03-23T18:06:35.649Z,100074.78
2023-03-23T18:09:01.974Z,100066.59
2023-03-23T18:11:28.294Z,100079.09
2023-03-23T18:13:54.713Z,100074.16
2023-03-23T18:16:21.101Z,100069.69
2023-03-23T18:18:47.670Z,100080.06
2023-03-23T18:21:14.052Z,100075.94
2023-03-23T18:23:49.299Z,100075.78
2023-03-23T18:26:23.555Z,100076.00
2023-03-23T18:28:49.893Z,100071.31
2023-03-23T18:31:16.269Z,100076.75
2023-03-23T18:33:42.678Z,100051.88
2023-03-23T18:36:09.179Z,100046.34
2023-03-23T18:38:36.992Z,100060.09
2023-03-23T18:41:05.145Z,100073.38
2023-03-23T18:43:31.503Z,100066.69
2023-03-23T18:45:57.891Z,100081.28
2023-03-23T18:48:24.725Z,100087.47
2023-03-23T18:50:51.045Z,100087.00
2023-03-23T18:53:17.446Z,100099.94
2023-03-23T18:55:44.085Z,100096.75
2023-03-23T18:58:11.127Z,100103.53
2023-03-23T19:00:37.469Z,100108.66
2023-03-23T19:03:04.022Z,100113.78
2023-03-23T19:05:30.475Z,100112.25
2023-03-23T19:07:57.016Z,100117.13
2023-03-23T19:10:23.445Z,100112.31
2023-03-23T19:12:52.005Z,100118.00
2023-03-23T19:15:18.484Z,100120.22
2023-03-23T19:17:44.862Z,100123.22
2023-03-23T19:20:14.657Z,100124.59
2023-03-23T19:22:45.960Z,100124.97
2023-03-23T19:25:12.366Z,100119.91
2023-03-23T19:28:03.676Z,100118.59
2023-03-23T19:30:25.782Z,100125.59
2023-03-23T19:32:52.284Z,100125.94
2023-03-23T19:35:18.750Z,100131.66
2023-03-23T19:37:45.265Z,100124.16
2023-03-23T19:40:31.069Z,100130.66
2023-03-23T19:42:58.957Z,100127.50
2023-03-23T19:45:25.875Z,100126.19
2023-03-23T19:47:52.279Z,100128.38
2023-03-23T19:50:18.711Z,100126.00
2023-03-23T19:52:45.221Z,100129.03
2023-03-23T19:55:11.617Z,100133.09
2023-03-23T19:57:38.136Z,100138.78
2023-03-23T20:00:05.078Z,100131.28
2023-03-23T20:02:32.218Z,100135.38
2023-03-23T20:04:59.663Z,100141.88
2023-03-23T20:07:26.982Z,100140.31
2023-03-23T20:09:53.559Z,100140.06
2023-03-23T20:12:19.988Z,100138.50
2023-03-23T20:14:46.622Z,100133.47
2023-03-23T20:17:13.052Z,100139.94
2023-03-23T20:19:40.287Z,100142.41
2023-03-23T20:22:07.518Z,100136.78
2023-03-23T20:24:33.964Z,100132.50
2023-03-23T20:27:00.896Z,100128.75
2023-03-23T20:29:31.373Z,100136.09
2023-03-23T20:31:57.886Z,100130.22
2023-03-23T20:34:24.594Z,100128.06
2023-03-23T20:36:50.970Z,100141.84
2023-03-23T20:39:17.621Z,100132.47
2023-03-23T20:41:44.076Z,100138.16
2023-03-23T20:44:10.461Z,100136.59
2023-03-23T20:46:36.910Z,100135.03
2023-03-23T20:49:03.401Z,100135.59
2023-03-23T20:51:29.774Z,100121.91
2023-03-23T20:53:56.629Z,100136.75
2023-03-23T20:56:23.124Z,100143.19
2023-03-23T20:58:49.520Z,100139.19
2023-03-23T21:01:15.995Z,100140.31
2023-03-23T21:03:42.577Z,100147.06
2023-03-23T21:06:09.144Z,100147.66
2023-03-23T21:08:35.877Z,100148.19
2023-03-23T21:11:02.264Z,100145.81
2023-03-23T21:13:29.252Z,100147.75
2023-03-23T21:15:56.131Z,100145.88
2023-03-23T21:18:23.212Z,100151.81
2023-03-23T21:20:49.584Z,100149.69
2023-03-23T21:23:16.299Z,100153.78
2023-03-23T21:25:42.910Z,100153.81
2023-03-23T21:28:09.469Z,100154.38
2023-03-23T21:30:35.876Z,100150.34
2023-03-23T21:33:02.282Z,100137.47
2023-03-23T21:35:28.798Z,100142.31
2023-03-23T21:37:55.208Z,100140.44
2023-03-23T21:40:21.641Z,100131.53
2023-03-23T21:42:48.031Z,100129.91
2023-03-23T21:45:14.417Z,100129.13
2023-03-23T21:47:41.225Z,100126.94
2023-03-23T21:50:08.037Z,100125.06
2023-03-23T21:52:34.386Z,100121.28
2023-03-23T21:55:00.796Z,100118.59
2023-03-23T21:57:27.857Z,100116.69
2023-03-23T21:59:54.218Z,100115.91
2023-03-23T22:02:20.722Z,100118.00
2023-03-23T22:04:47.540Z,100108.88
2023-03-23T22:07:13.866Z,100104.28
2023-03-23T22:09:40.220Z,100104.28
2023-03-23T22:12:06.724Z,100112.38
2023-03-23T22:14:33.088Z,100107.22
2023-03-23T22:16:59.416Z,100114.00
2023-03-23T22:19:26.277Z,100104.59
2023-03-23T22:21:53.010Z,100105.41
2023-03-23T22:24:19.427Z,100095.19
2023-03-23T22:26:45.913Z,100090.59
2023-03-23T22:29:12.654Z,100097.38
2023-03-23T22:31:39.584Z,100101.13
2023-03-23T22:34:06.166Z,100097.38
2023-03-23T22:36:32.729Z,100097.13
2023-03-23T22:38:59.056Z,100086.34
2023-03-23T22:41:25.527Z,100079.84
2023-03-23T22:43:51.879Z,100075.28
2023-03-23T22:46:18.453Z,100085.81
2023-03-23T22:48:44.875Z,100081.22
2023-03-23T22:51:11.495Z,100077.50
2023-03-23T22:53:38.404Z,100077.50
2023-03-23T22:56:04.873Z,100073.16
2023-03-23T22:58:31.573Z,100068.03
2023-03-23T23:00:58.081Z,100066.38
2023-03-23T23:03:24.971Z,100069.63
2023-03-23T23:05:51.613Z,100071.19
2023-03-23T23:08:18.385Z,100065.22
2023-03-23T23:10:44.875Z,100062.00
2023-03-23T23:13:11.382Z,100062.50
2023-03-23T23:15:37.763Z,100057.59
2023-03-23T23:18:05.178Z,100063.25
2023-03-23T23:20:31.742Z,100049.47
2023-03-23T23:22:58.122Z,100055.94
2023-03-23T23:25:25.789Z,100060.75
2023-03-23T23:27:52.206Z,100043.50
2023-03-23T23:30:18.552Z,100051.28
2023-03-23T23:32:44.941Z,100050.72
2023-03-23T23:35:11.339Z,100050.16
2023-03-23T23:37:37.937Z,100048.78
2023-03-23T23:40:04.459Z,100048.25
2023-03-23T23:42:30.826Z,100047.66
2023-03-23T23:44:57.941Z,100049.81
2023-03-23T23:47:24.368Z,100052.25
2023-03-23T23:49:50.670Z,100048.44
2023-03-23T23:52:17.319Z,100042.47
2023-03-23T23:54:44.435Z,100036.00
2023-03-23T23:57:11.338Z,100041.94
2023-03-23T23:59:38.167Z,100044.63
